Weather at Flugplatz Birrfeld

Public forecast

Using degrees Celsius for public forecast. Weather courtesy of forecast.io.

Closest aviation weather report (METAR) to Flugplatz Birrfeld

Closest report is Zürich Airport, 12.8 nm (23.7 km) E. Retrieved 2021/03/02 20:20 UTC (2 hours ago):

LSZH 022020Z VRB01KT CAVOK 03/M00 Q1031 NOSIG

Closest aviation forecast (TAF) to Flugplatz Birrfeld

Forecast is more than 6 hours old.

Closest forecast is Zürich Airport, 12.8 nm (23.7 km) E. Retrieved 2021/03/02 15:33 UTC (6 hours ago):

TAF LSZH 021425Z 0215/0321 VRB02KT CAVOK TX14/0215Z TNM03/0306Z TX16/0315Z BECMG 0300/0303 8000 MIFG NSC PROB40 0304/0308 4000 BCFG NSC BECMG 0308/0311 CAVOK